createdAt,value
2017-10-24T00:01:54.350Z,7.10
2017-10-24T00:04:24.175Z,7.47
2017-10-24T00:07:06.425Z,6.00
2017-10-24T00:09:50.346Z,6.10
2017-10-24T00:12:40.762Z,6.40
2017-10-24T00:15:15.240Z,7.33
2017-10-24T00:17:43.187Z,7.83
2017-10-24T00:20:09.214Z,8.73
2017-10-24T00:22:47.450Z,9.30
2017-10-24T00:25:13.459Z,7.43
2017-10-24T00:27:39.483Z,7.43
2017-10-24T00:30:06.253Z,8.80
2017-10-24T00:32:33.307Z,7.87
2017-10-24T00:35:04.350Z,8.90
2017-10-24T00:37:37.867Z,7.53
2017-10-24T00:40:03.857Z,10.83
2017-10-24T00:42:35.031Z,9.17
2017-10-24T00:45:15.513Z,8.80
2017-10-24T00:47:41.482Z,8.93
2017-10-24T00:50:08.446Z,14.03
2017-10-24T00:52:37.152Z,10.17
2017-10-24T00:55:08.401Z,10.57
2017-10-24T00:57:41.099Z,8.57
2017-10-24T01:00:08.135Z,9.00
2017-10-24T01:02:35.183Z,8.63
2017-10-24T01:05:02.973Z,10.63
2017-10-24T01:07:33.167Z,8.90
2017-10-24T01:10:05.474Z,9.97
2017-10-24T01:12:35.781Z,12.67
2017-10-24T01:15:06.198Z,11.70
2017-10-24T01:17:38.484Z,20.73
2017-10-24T01:20:05.155Z,16.67
2017-10-24T01:22:31.162Z,10.50
2017-10-24T01:25:07.722Z,16.90
2017-10-24T01:27:40.079Z,11.93
2017-10-24T01:30:06.823Z,11.67
2017-10-24T01:32:43.941Z,13.97
2017-10-24T01:35:09.955Z,11.80
2017-10-24T01:37:51.680Z,10.27
2017-10-24T01:40:18.692Z,13.23
2017-10-24T01:42:59.601Z,15.90
2017-10-24T01:45:27.675Z,13.07
2017-10-24T01:47:53.659Z,17.17
2017-10-24T01:50:20.339Z,12.50
2017-10-24T01:52:54.650Z,16.47
2017-10-24T01:55:34.914Z,12.87
2017-10-24T01:58:05.399Z,8.93
2017-10-24T02:00:45.576Z,15.87
2017-10-24T02:03:12.659Z,13.40
2017-10-24T02:05:50.618Z,10.80
2017-10-24T02:08:17.307Z,21.83
2017-10-24T02:10:43.306Z,15.80
2017-10-24T02:13:14.421Z,16.20
2017-10-24T02:15:44.970Z,14.73
2017-10-24T02:18:32.349Z,11.53
2017-10-24T02:20:58.317Z,16.83
2017-10-24T02:23:35.502Z,10.70
2017-10-24T02:26:02.222Z,12.50
2017-10-24T02:28:28.299Z,23.57
2017-10-24T02:30:57.690Z,16.20
2017-10-24T02:33:24.727Z,15.47
2017-10-24T02:35:55.574Z,9.93
2017-10-24T02:38:22.307Z,22.37
2017-10-24T02:40:52.138Z,16.13
2017-10-24T02:43:23.580Z,12.90
2017-10-24T02:46:03.042Z,10.63
2017-10-24T02:48:29.057Z,24.97
2017-10-24T02:51:00.646Z,14.83
2017-10-24T02:53:30.102Z,13.03
2017-10-24T02:56:21.782Z,13.23
2017-10-24T02:58:51.453Z,19.13
2017-10-24T03:01:17.390Z,23.60
2017-10-24T03:03:48.710Z,23.57
2017-10-24T03:06:15.460Z,19.97
2017-10-24T03:09:09.485Z,21.60
2017-10-24T03:11:43.234Z,18.00
2017-10-24T03:14:09.961Z,18.73
2017-10-24T03:16:36.913Z,20.97
2017-10-24T03:19:02.854Z,19.13
2017-10-24T03:21:34.744Z,18.10
2017-10-24T03:24:18.062Z,21.60
2017-10-24T03:26:48.666Z,18.73
2017-10-24T03:29:23.418Z,16.27
2017-10-24T03:32:03.062Z,20.57
2017-10-24T03:34:39.757Z,13.40
2017-10-24T03:37:05.717Z,13.37
2017-10-24T03:39:31.788Z,17.13
2017-10-24T03:42:04.157Z,18.07
2017-10-24T03:44:41.754Z,21.87
2017-10-24T03:47:11.035Z,19.40
2017-10-24T03:49:48.483Z,27.20
2017-10-24T03:52:14.450Z,23.23
2017-10-24T03:54:40.374Z,17.53
2017-10-24T03:57:06.434Z,18.80
2017-10-24T03:59:38.170Z,17.27
2017-10-24T04:02:17.638Z,19.27
2017-10-24T04:04:51.153Z,19.30
2017-10-24T04:07:22.574Z,30.30
2017-10-24T04:10:03.065Z,20.80
2017-10-24T04:12:40.524Z,20.63
2017-10-24T04:15:12.496Z,15.87
2017-10-24T04:17:40.233Z,23.47
2017-10-24T04:20:06.244Z,21.20
2017-10-24T04:22:35.599Z,26.00
2017-10-24T04:25:05.497Z,32.93
2017-10-24T04:27:36.133Z,27.57
2017-10-24T04:30:06.655Z,22.10
2017-10-24T04:32:36.068Z,19.07
2017-10-24T04:35:05.678Z,20.37
2017-10-24T04:37:31.618Z,20.77
2017-10-24T04:40:05.656Z,22.53
2017-10-24T04:42:33.701Z,17.70
2017-10-24T04:45:06.716Z,26.47
2017-10-24T04:47:37.413Z,21.93
2017-10-24T04:50:03.341Z,18.53
2017-10-24T04:52:33.186Z,23.20
2017-10-24T04:54:59.130Z,20.30
2017-10-24T04:57:33.743Z,16.63
2017-10-24T05:00:00.951Z,17.40
2017-10-24T05:05:40.359Z,28.60
2017-10-24T05:08:06.340Z,20.00
2017-10-24T05:10:33.087Z,19.07
2017-10-24T05:13:02.909Z,17.80
2017-10-24T05:15:30.675Z,22.60
2017-10-24T05:18:00.611Z,27.23
2017-10-24T05:20:26.552Z,22.20
2017-10-24T05:22:52.485Z,18.70
2017-10-24T05:25:18.474Z,20.67
2017-10-24T05:27:49.027Z,28.70
2017-10-24T05:30:15.707Z,18.50
2017-10-24T05:32:45.150Z,18.70
2017-10-24T05:35:11.134Z,34.03
2017-10-24T05:37:40.030Z,24.30
2017-10-24T05:40:05.993Z,14.40
2017-10-24T05:42:31.933Z,20.40
2017-10-24T05:44:57.884Z,18.10
2017-10-24T05:47:24.581Z,16.67
2017-10-24T05:49:50.530Z,20.93
2017-10-24T05:52:16.482Z,21.87
2017-10-24T05:54:42.463Z,16.60
2017-10-24T05:57:08.421Z,17.90
2017-10-24T05:59:34.551Z,26.60
2017-10-24T06:02:02.368Z,18.00
2017-10-24T06:07:29.098Z,15.03
2017-10-24T06:10:03.643Z,17.87
2017-10-24T06:12:37.325Z,18.97
2017-10-24T06:15:03.264Z,17.83
2017-10-24T06:17:31.316Z,16.73
2017-10-24T06:19:57.993Z,16.10
2017-10-24T06:22:37.143Z,16.20
2017-10-24T06:25:04.145Z,17.53
2017-10-24T06:27:34.052Z,20.40
2017-10-24T06:30:01.836Z,17.17
2017-10-24T06:32:35.471Z,18.93
2017-10-24T06:35:21.678Z,26.03
2017-10-24T06:40:40.910Z,21.83
2017-10-24T06:43:16.965Z,23.60
2017-10-24T06:45:52.218Z,23.20
2017-10-24T06:48:21.904Z,14.67
2017-10-24T06:51:03.929Z,17.33
2017-10-24T06:53:30.948Z,15.83
2017-10-24T06:56:12.050Z,18.17
2017-10-24T06:58:39.062Z,21.37
2017-10-24T07:01:05.753Z,32.40
2017-10-24T07:03:31.690Z,14.90
2017-10-24T07:05:57.651Z,17.70
2017-10-24T07:08:25.650Z,17.60
2017-10-24T07:10:52.373Z,20.53
2017-10-24T07:13:18.418Z,13.50
2017-10-24T07:15:58.306Z,15.33
2017-10-24T07:18:24.312Z,18.33
2017-10-24T07:20:51.277Z,15.43
2017-10-24T07:23:17.264Z,25.30
2017-10-24T07:25:47.194Z,16.50
2017-10-24T07:28:24.811Z,16.47
2017-10-24T07:30:50.798Z,15.40
2017-10-24T07:33:18.578Z,15.73
2017-10-24T07:36:04.105Z,17.77
2017-10-24T07:38:39.097Z,24.53
2017-10-24T07:41:07.898Z,20.90
2017-10-24T07:43:34.118Z,20.83
2017-10-24T07:46:00.218Z,17.03
2017-10-24T07:48:32.355Z,14.33
2017-10-24T07:51:04.919Z,16.30
2017-10-24T07:53:41.512Z,15.43
2017-10-24T07:56:15.217Z,21.77
2017-10-24T07:58:59.466Z,15.40
2017-10-24T08:01:25.451Z,18.50
2017-10-24T08:03:58.347Z,20.03
2017-10-24T08:09:18.115Z,16.03
2017-10-24T08:11:58.411Z,17.40
2017-10-24T08:14:28.104Z,16.60
2017-10-24T08:17:15.787Z,15.10
2017-10-24T08:19:41.756Z,12.70
2017-10-24T08:22:21.014Z,18.37
2017-10-24T08:24:50.570Z,12.90
2017-10-24T08:27:29.956Z,11.83
2017-10-24T08:29:55.942Z,13.43
2017-10-24T08:32:23.739Z,15.10
2017-10-24T08:35:07.195Z,9.87
2017-10-24T08:37:44.051Z,13.07
2017-10-24T08:40:12.086Z,15.80
2017-10-24T08:42:51.826Z,10.37
2017-10-24T08:45:19.805Z,11.67
2017-10-24T08:47:45.847Z,10.10
2017-10-24T08:50:12.542Z,14.03
2017-10-24T08:52:38.492Z,10.03
2017-10-24T08:55:05.434Z,9.90
2017-10-24T08:57:31.383Z,8.40
2017-10-24T09:00:05.244Z,11.63
2017-10-24T09:02:31.194Z,8.47
2017-10-24T09:04:57.148Z,9.50
2017-10-24T09:07:24.079Z,11.23
2017-10-24T09:09:51.058Z,12.10
2017-10-24T09:12:23.322Z,10.73
2017-10-24T09:14:58.786Z,7.07
2017-10-24T09:17:31.994Z,9.43
2017-10-24T09:20:12.058Z,7.33
2017-10-24T09:22:37.986Z,9.23
2017-10-24T09:25:03.958Z,6.70
2017-10-24T09:27:34.319Z,13.33
2017-10-24T09:30:00.267Z,7.00
2017-10-24T09:32:32.370Z,7.37
2017-10-24T09:34:58.352Z,8.30
2017-10-24T09:37:24.314Z,9.23
2017-10-24T09:39:50.266Z,7.00
2017-10-24T09:42:16.241Z,7.67
2017-10-24T09:44:42.185Z,8.63
2017-10-24T09:47:08.117Z,7.20
2017-10-24T09:49:34.050Z,11.40
2017-10-24T09:51:59.983Z,7.50
2017-10-24T09:54:25.934Z,8.63
2017-10-24T09:56:51.858Z,9.60
2017-10-24T09:59:38.818Z,13.13
2017-10-24T10:02:04.758Z,6.43
2017-10-24T10:04:30.710Z,10.50
2017-10-24T10:07:02.506Z,7.20
2017-10-24T10:09:28.442Z,7.70
2017-10-24T10:11:57.008Z,6.73
2017-10-24T10:14:26.817Z,7.30
2017-10-24T10:16:53.496Z,11.90
2017-10-24T10:19:19.428Z,8.30
2017-10-24T10:21:52.300Z,6.93
2017-10-24T10:24:20.155Z,9.13
2017-10-24T10:26:46.838Z,6.23
2017-10-24T10:29:12.767Z,5.20
2017-10-24T10:31:38.726Z,6.17
2017-10-24T10:34:04.664Z,4.23
2017-10-24T10:36:30.602Z,5.27
2017-10-24T10:38:57.303Z,4.47
2017-10-24T10:41:23.274Z,7.57
2017-10-24T10:43:49.229Z,3.90
2017-10-24T10:46:15.175Z,3.93
2017-10-24T10:48:41.160Z,6.37
2017-10-24T10:51:07.914Z,7.80
2017-10-24T10:53:34.597Z,10.87
2017-10-24T10:56:00.530Z,5.73
2017-10-24T10:58:26.454Z,5.43
2017-10-24T11:00:52.403Z,3.73
2017-10-24T11:03:19.375Z,4.37
2017-10-24T11:05:48.805Z,6.53
2017-10-24T11:08:22.712Z,11.00
2017-10-24T11:11:00.214Z,5.60
2017-10-24T11:13:26.202Z,4.17
2017-10-24T11:15:52.330Z,8.70
2017-10-24T11:21:11.259Z,12.13
2017-10-24T11:23:37.264Z,16.00
2017-10-24T11:26:14.049Z,8.73
2017-10-24T11:28:39.995Z,6.83
2017-10-24T11:31:05.950Z,3.87
2017-10-24T11:33:31.916Z,3.70
2017-10-24T11:35:57.829Z,3.90
2017-10-24T11:38:23.763Z,3.63
2017-10-24T11:40:50.457Z,5.13
2017-10-24T11:43:16.387Z,9.10
2017-10-24T11:45:42.386Z,8.63
2017-10-24T11:48:08.345Z,4.90
2017-10-24T11:50:34.281Z,5.50
2017-10-24T11:53:00.230Z,3.40
2017-10-24T11:55:26.978Z,3.77
2017-10-24T11:57:52.914Z,6.23
2017-10-24T12:00:23.288Z,5.40
2017-10-24T12:02:49.250Z,2.83
2017-10-24T12:05:15.189Z,3.67
2017-10-24T12:07:41.148Z,2.37
2017-10-24T12:10:07.846Z,3.13
2017-10-24T12:12:33.791Z,2.47
2017-10-24T12:14:59.738Z,3.93
2017-10-24T12:20:22.097Z,4.07
2017-10-24T12:22:57.658Z,2.63
2017-10-24T12:25:24.714Z,2.47
2017-10-24T12:28:01.672Z,2.40
2017-10-24T12:33:23.803Z,3.33
2017-10-24T12:35:50.542Z,3.73
2017-10-24T12:38:16.602Z,2.57
2017-10-24T12:40:54.002Z,2.37
2017-10-24T12:43:40.321Z,4.47
2017-10-24T12:46:22.481Z,2.87
2017-10-24T12:48:59.993Z,4.97
2017-10-24T12:51:29.343Z,7.47
2017-10-24T12:53:55.377Z,6.07
2017-10-24T12:56:21.410Z,2.30
2017-10-24T12:58:49.374Z,14.73
2017-10-24T13:01:15.405Z,3.80
2017-10-24T13:03:41.454Z,2.60
2017-10-24T13:06:14.119Z,2.43
2017-10-24T13:08:40.046Z,3.30
2017-10-24T13:11:05.978Z,4.00
2017-10-24T13:13:34.688Z,3.20
2017-10-24T13:16:08.491Z,3.43
2017-10-24T13:18:36.276Z,3.27
2017-10-24T13:21:13.130Z,4.23
2017-10-24T13:23:41.831Z,7.93
2017-10-24T13:26:08.536Z,3.20
2017-10-24T13:28:41.385Z,3.00
2017-10-24T13:31:15.769Z,2.90
2017-10-24T13:33:51.226Z,4.83
2017-10-24T13:36:17.896Z,5.07
2017-10-24T13:38:43.825Z,2.37
2017-10-24T13:41:09.757Z,2.73
2017-10-24T13:43:35.672Z,8.03
2017-10-24T13:46:01.610Z,3.10
2017-10-24T13:48:27.525Z,3.17
2017-10-24T13:50:53.461Z,4.83
2017-10-24T13:53:22.853Z,4.30
2017-10-24T13:55:52.218Z,3.57
2017-10-24T13:58:23.873Z,3.10
2017-10-24T14:00:50.833Z,4.00
2017-10-24T14:03:17.514Z,4.93
2017-10-24T14:05:49.655Z,4.47
2017-10-24T14:08:22.552Z,4.73
2017-10-24T14:10:49.225Z,4.13
2017-10-24T14:13:15.211Z,6.23
2017-10-24T14:15:41.874Z,5.33
2017-10-24T14:18:07.870Z,5.33
2017-10-24T14:20:40.357Z,7.93
2017-10-24T14:23:11.801Z,5.73
2017-10-24T14:25:41.286Z,5.03
2017-10-24T14:28:12.446Z,6.57
2017-10-24T14:30:38.488Z,4.53
2017-10-24T14:33:05.433Z,7.43
2017-10-24T14:35:31.454Z,4.93
2017-10-24T14:37:57.492Z,5.80
2017-10-24T14:40:23.432Z,8.17
2017-10-24T14:42:51.118Z,6.20
2017-10-24T14:45:17.104Z,5.83
2017-10-24T14:47:43.068Z,6.27
2017-10-24T14:50:11.869Z,5.30
2017-10-24T14:52:41.853Z,23.80
2017-10-24T14:55:07.771Z,7.37
2017-10-24T14:57:33.687Z,7.90
2017-10-24T14:59:59.610Z,7.27
2017-10-24T15:02:25.577Z,11.73
2017-10-24T15:04:52.254Z,6.50
2017-10-24T15:07:18.174Z,7.90
2017-10-24T15:09:44.093Z,6.70
2017-10-24T15:12:10.877Z,7.77
2017-10-24T15:14:36.802Z,24.13
2017-10-24T15:17:02.726Z,12.33
2017-10-24T15:19:28.651Z,8.07
2017-10-24T15:21:54.574Z,11.33
2017-10-24T15:24:20.490Z,12.13
2017-10-24T15:26:46.417Z,7.80
2017-10-24T15:29:12.405Z,8.30
2017-10-24T15:31:38.445Z,7.90
2017-10-24T15:34:05.169Z,8.33
2017-10-24T15:36:31.114Z,9.30
2017-10-24T15:38:57.776Z,8.10
2017-10-24T15:41:27.766Z,8.90
2017-10-24T15:43:53.701Z,10.43
2017-10-24T15:46:19.679Z,15.20
2017-10-24T15:48:45.592Z,11.73
2017-10-24T15:51:11.527Z,8.00
2017-10-24T15:53:37.466Z,8.13
2017-10-24T15:56:03.409Z,9.30
2017-10-24T15:58:29.341Z,8.67
2017-10-24T16:00:55.257Z,8.00
2017-10-24T16:03:21.198Z,7.40
2017-10-24T16:05:47.109Z,10.53
2017-10-24T16:08:13.037Z,11.70
2017-10-24T16:10:39.059Z,7.63
2017-10-24T16:13:06.102Z,10.90
2017-10-24T16:15:38.745Z,8.43
2017-10-24T16:18:11.506Z,13.73
2017-10-24T16:20:37.485Z,8.10
2017-10-24T16:23:03.414Z,9.60
2017-10-24T16:25:29.449Z,12.70
2017-10-24T16:27:55.374Z,8.97
2017-10-24T16:30:21.314Z,15.07
2017-10-24T16:32:47.223Z,12.47
2017-10-24T16:35:13.139Z,8.90
2017-10-24T16:37:39.074Z,8.40
2017-10-24T16:40:05.021Z,8.00
2017-10-24T16:42:30.942Z,7.20
2017-10-24T16:44:56.881Z,7.83
2017-10-24T16:47:22.805Z,11.23
2017-10-24T16:49:48.733Z,10.03
2017-10-24T16:52:14.654Z,11.27
2017-10-24T16:54:40.570Z,7.57
2017-10-24T16:57:06.538Z,8.87
2017-10-24T16:59:32.457Z,8.73
2017-10-24T17:01:58.371Z,8.30
2017-10-24T17:04:24.298Z,17.93
2017-10-24T17:06:50.292Z,8.50
2017-10-24T17:09:19.261Z,9.10
2017-10-24T17:11:45.253Z,9.17
2017-10-24T17:14:11.201Z,7.87
2017-10-24T17:16:40.978Z,9.23
2017-10-24T17:19:06.902Z,8.37
2017-10-24T17:21:32.841Z,9.30
2017-10-24T17:23:58.750Z,7.80
2017-10-24T17:26:24.720Z,8.83
2017-10-24T17:28:50.654Z,8.03
2017-10-24T17:31:16.568Z,7.87
2017-10-24T17:33:43.249Z,6.90
2017-10-24T17:36:13.083Z,7.00
2017-10-24T17:38:39.762Z,9.00
2017-10-24T17:41:05.710Z,6.47
2017-10-24T17:43:31.643Z,8.97
2017-10-24T17:45:57.695Z,7.90
2017-10-24T17:48:24.378Z,8.07
2017-10-24T17:50:50.314Z,5.67
2017-10-24T17:53:16.242Z,6.50
2017-10-24T17:55:42.162Z,5.17
2017-10-24T17:58:08.086Z,6.10
2017-10-24T18:00:34.005Z,10.33
2017-10-24T18:02:59.942Z,7.00
2017-10-24T18:05:25.878Z,6.20
2017-10-24T18:07:51.818Z,5.50
2017-10-24T18:10:17.737Z,8.50
2017-10-24T18:12:43.654Z,6.60
2017-10-24T18:15:09.585Z,5.27
2017-10-24T18:17:35.485Z,6.07
2017-10-24T18:20:01.426Z,5.77
2017-10-24T18:22:30.590Z,7.93
2017-10-24T18:25:17.326Z,7.17
2017-10-24T18:27:43.325Z,13.90
2017-10-24T18:30:13.228Z,7.20
2017-10-24T18:32:54.038Z,7.50
2017-10-24T18:35:20.030Z,6.77
2017-10-24T18:37:45.989Z,8.47
2017-10-24T18:40:15.890Z,12.40
2017-10-24T18:42:54.004Z,7.13
2017-10-24T18:45:21.742Z,6.60
2017-10-24T18:47:47.697Z,7.23
2017-10-24T18:50:15.367Z,8.60
2017-10-24T18:52:56.598Z,7.57
2017-10-24T18:55:22.545Z,7.77
2017-10-24T18:57:52.136Z,9.13
2017-10-24T19:00:18.097Z,9.47
2017-10-24T19:02:44.780Z,7.70
2017-10-24T19:05:19.097Z,7.90
2017-10-24T19:08:00.055Z,8.23
2017-10-24T19:10:26.046Z,9.30
2017-10-24T19:12:54.030Z,13.43
2017-10-24T19:15:23.958Z,8.93
2017-10-24T19:17:50.675Z,8.73
2017-10-24T19:20:18.650Z,8.80
2017-10-24T19:22:46.651Z,8.17
2017-10-24T19:25:26.609Z,11.77
2017-10-24T19:27:52.623Z,8.50
2017-10-24T19:30:20.365Z,10.77
2017-10-24T19:32:46.278Z,8.80
2017-10-24T19:35:14.981Z,8.63
2017-10-24T19:37:40.897Z,15.30
2017-10-24T19:40:07.862Z,12.10
2017-10-24T19:42:33.930Z,7.53
2017-10-24T19:45:01.670Z,8.00
2017-10-24T19:47:27.681Z,7.90
2017-10-24T19:50:02.542Z,7.57
2017-10-24T19:52:48.132Z,7.43
2017-10-24T19:55:19.887Z,6.63
2017-10-24T19:58:04.657Z,7.23
2017-10-24T20:00:32.616Z,8.10
2017-10-24T20:02:59.274Z,7.50
2017-10-24T20:05:33.506Z,8.07
2017-10-24T20:07:59.450Z,10.43
2017-10-24T20:10:28.717Z,11.33
2017-10-24T20:13:03.230Z,7.73
2017-10-24T20:15:47.733Z,9.90
2017-10-24T20:18:26.197Z,7.40
2017-10-24T20:20:53.967Z,7.23
2017-10-24T20:23:34.953Z,7.80
2017-10-24T20:26:00.941Z,9.70
2017-10-24T20:28:34.007Z,10.10
2017-10-24T20:31:10.430Z,8.37
2017-10-24T20:33:46.779Z,9.93
2017-10-24T20:39:09.790Z,11.13
2017-10-24T20:41:35.772Z,8.10
2017-10-24T20:44:01.710Z,8.13
2017-10-24T20:46:28.399Z,7.77
2017-10-24T20:48:55.377Z,6.90
2017-10-24T20:51:33.205Z,9.30
2017-10-24T20:53:59.958Z,11.57
2017-10-24T20:56:34.054Z,10.10
2017-10-24T20:59:06.604Z,9.57
2017-10-24T21:01:32.839Z,8.13
2017-10-24T21:04:01.057Z,8.27
2017-10-24T21:06:33.707Z,8.77
2017-10-24T21:08:59.760Z,10.13
2017-10-24T21:11:28.573Z,8.50
2017-10-24T21:13:56.514Z,8.80
2017-10-24T21:16:23.193Z,7.77
2017-10-24T21:18:50.420Z,15.03
2017-10-24T21:21:21.197Z,11.97
2017-10-24T21:23:47.165Z,7.93
2017-10-24T21:26:13.210Z,10.63
2017-10-24T21:28:46.357Z,13.60
2017-10-24T21:31:17.750Z,11.00
2017-10-24T21:33:57.334Z,10.07
2017-10-24T21:36:27.727Z,11.90
2017-10-24T21:38:56.420Z,7.03
2017-10-24T21:41:26.733Z,8.90
2017-10-24T21:43:52.754Z,9.10
2017-10-24T21:46:18.884Z,10.33
2017-10-24T21:48:44.953Z,15.00
2017-10-24T21:51:19.160Z,10.00
2017-10-24T21:54:02.810Z,8.70
2017-10-24T21:56:28.795Z,9.60
2017-10-24T21:58:58.039Z,8.30
2017-10-24T22:01:26.086Z,10.00
2017-10-24T22:03:52.738Z,15.17
2017-10-24T22:06:26.189Z,10.33
2017-10-24T22:09:03.726Z,7.97
2017-10-24T22:11:31.469Z,17.93
2017-10-24T22:13:57.499Z,8.10
2017-10-24T22:16:25.478Z,8.83
2017-10-24T22:18:51.517Z,8.73
2017-10-24T22:21:20.181Z,9.70
2017-10-24T22:23:56.469Z,8.10
2017-10-24T22:26:24.269Z,9.00
2017-10-24T22:28:50.292Z,12.27
2017-10-24T22:31:20.989Z,8.80
2017-10-24T22:33:46.920Z,13.43
2017-10-24T22:36:15.607Z,9.27
2017-10-24T22:38:41.629Z,9.07
2017-10-24T22:41:10.734Z,13.13
2017-10-24T22:43:38.713Z,11.50
2017-10-24T22:46:05.661Z,12.90
2017-10-24T22:48:56.838Z,11.83
2017-10-24T22:51:23.878Z,12.33
2017-10-24T22:53:49.844Z,10.93
2017-10-24T22:56:17.298Z,11.20
2017-10-24T22:58:54.028Z,10.83
2017-10-24T23:01:21.937Z,9.13
2017-10-24T23:03:47.870Z,12.17
2017-10-24T23:06:20.265Z,9.67
2017-10-24T23:08:46.291Z,12.60
2017-10-24T23:11:26.280Z,13.40
2017-10-24T23:13:59.889Z,16.33
2017-10-24T23:16:27.911Z,12.23
2017-10-24T23:18:55.889Z,11.00
2017-10-24T23:21:22.837Z,17.37
2017-10-24T23:23:50.618Z,11.43
2017-10-24T23:26:22.978Z,9.43
2017-10-24T23:29:06.574Z,11.67
2017-10-24T23:31:39.104Z,15.40
2017-10-24T23:34:08.586Z,17.30
2017-10-24T23:36:53.711Z,12.47
2017-10-24T23:39:19.693Z,11.27
2017-10-24T23:41:59.879Z,15.67
2017-10-24T23:44:32.339Z,12.43
2017-10-24T23:47:00.074Z,13.93
2017-10-24T23:49:36.586Z,13.23
2017-10-24T23:52:04.318Z,12.50
2017-10-24T23:54:32.297Z,12.80
2017-10-24T23:57:05.722Z,13.50
2017-10-24T23:59:37.142Z,12.40
